Apache, OK (73006)

4:02 AM CDT on September 22, 2014 (GMT -0500)
Fletcher | Change Station
CLOSE
Current Station
Personal Weather Station
Location: Fletcher, OK
Elevation: 1375 ft
Nearby Weather Stations

Elev 1375 ft 34.82 °N, 98.24 °W | Updated 15 minutes ago

Partly Cloudy
Partly Cloudy
64.9 °F
Feels Like 64.9 °F
N
3.7
Wind Variable Wind from NNW

Today
High -- | Low -- °F
--% Chance of Precip.
Yesterday
High -- | Low -- °F
Precip. -- in
7:21 AM 7:30 PM
Waning Crescent, 3% visible
Pressure 30.17 in
Visibility 10.0 miles
Clouds Mostly Cloudy 9000 ft
Mostly Cloudy 10000 ft
Dew Point 52 °F
Humidity 64%
Rainfall 0.00 in
Snow Depth Not available.
UV 0 out of 12
Pollen 10.00 out of 12
Air Quality Not available.
Flu Activity Not available.
METAR KLAW 220853Z AUTO 04006KT 10SM BKN090 BKN100 20/13 A3020 RMK AO2 SLP216 T02000128 53006 $

More Conditions Fewer Conditions

Pressure 30.17 in
Visibility 10.0 miles
Clouds Mostly Cloudy 9000 ft
Mostly Cloudy 10000 ft
Dew Point 52 °F
Humidity 64%
Rainfall 0.00 in
Snow Depth Not available.
UV 0 out of 12
Pollen 10.00 out of 12
Air Quality Not available.
Flu Activity Not available.
METAR KLAW 220853Z AUTO 04006KT 10SM BKN090 BKN100 20/13 A3020 RMK AO2 SLP216 T02000128 53006 $

More Conditions Fewer Conditions

10-Day Weather Forecast

Almanac

Astronomy

Sep. 22, 2014 Rise Set
Actual Time 7:21 AM CDT 7:30 PM CDT
Civil Twilight 6:56 AM CDT 7:55 PM CDT
Nautical Twilight 6:26 AM CDT 8:24 PM CDT
Astronomical Twilight 5:56 AM CDT 8:54 PM CDT
Moon 5:54 AM CDT 6:37 PM CDT
Length of Visible Light 12h 59m
Length of Day
12h 08m
Tomorrow will be 2m 11s shorter.
Waning Crescent, 3% of the Moon is Illuminated
Today
Waning Crescent
Sep 24
New
Oct 1
First Quarter
Oct 8
Full
Oct 15
Last Quarter

Today's Extremes

State Highs State Lows

Community

WunderPhotos

Upload Photos

1,755,402 photos uploaded!

Nearby

Snow Depth

Station Depth Elevation
No new snow has been reported.

Earthquake Activity

City Distance Mag. Time & Date
Medford, Oklahoma 137 miles 3.2 2:10 AM CDT
2014-09-20
Luther, Oklahoma 89 miles 2.7 4:47 PM CDT
2014-09-19
Guthrie, Oklahoma 83 miles 3.6 12:23 PM CDT
2014-09-19
Jones, Oklahoma 77 miles 2.8 1:13 AM CDT
2014-09-19
Minimum magnitude displayed is 2.5.

Coastal Water Temperatures

Place Temperature
No Stations Reporting

Nearby Weather Stations